Time;durP1;ratioP1;P1;durP2;ratioP2;P2;SDS_P1;SDS_P2;PMS_P1;PMS_P2;Temp;Humidity;BMP_temperature;BMP_pressure;BME280_temperature;BME280_humidity;BME280_pressure;Samples;Min_cycle;Max_cycle;Signal;HPM_P1;HPM_P2
2023/12/13 00:01:49;;;;;;;9.07;5.73;;;;;;;;;;6213985;23;20262;-88
2023/12/13 00:04:22;;;;;;;10.27;6.33;;;;;;;;;;6213679;23;20180;-88
2023/12/13 00:06:51;;;;;;;7.70;6.03;;;;;;;;;;6213919;23;20226;-88
2023/12/13 00:09:19;;;;;;;8.03;5.13;;;;;;;;;;6214327;23;20179;-88
2023/12/13 00:11:49;;;;;;;10.00;5.37;;;;;;;;;;6214495;23;20213;-88
2023/12/13 00:14:18;;;;;;;8.13;5.57;;;;;;;;;;6213847;23;20223;-88
2023/12/13 00:16:47;;;;;;;10.30;7.27;;;;;;;;;;6213669;23;20242;-88
2023/12/13 00:19:16;;;;;;;9.47;6.07;;;;;;;;;;6213097;23;20231;-88
2023/12/13 00:21:45;;;;;;;11.43;6.37;;;;;;;;;;6213794;23;20266;-88
2023/12/13 00:24:13;;;;;;;6.03;2.93;;;;;;;;;;6213180;23;20198;-88
2023/12/13 00:26:42;;;;;;;2.83;2.17;;;;;;;;;;6213138;23;20168;-88
2023/12/13 00:29:12;;;;;;;12.03;5.80;;;;;;;;;;6214057;23;20181;-88
2023/12/13 00:31:41;;;;;;;6.03;3.30;;;;;;;;;;6213492;23;20233;-88
2023/12/13 00:34:10;;;;;;;8.07;7.13;;;;;;;;;;6212333;23;20212;-88
2023/12/13 00:36:39;;;;;;;11.40;7.00;;;;;;;;;;6213282;23;20191;-88
2023/12/13 00:39:08;;;;;;;11.50;6.60;;;;;;;;;;6213399;23;20172;-88
2023/12/13 00:41:36;;;;;;;13.53;7.03;;;;;;;;;;6213563;23;20173;-88
2023/12/13 00:44:05;;;;;;;7.90;6.27;;;;;;;;;;6212395;23;20171;-88
2023/12/13 00:46:35;;;;;;;10.70;8.30;;;;;;;;;;6213082;23;20198;-88
2023/12/13 00:49:03;;;;;;;10.27;8.50;;;;;;;;;;6213746;23;20179;-88
2023/12/13 00:51:32;;;;;;;8.63;5.93;;;;;;;;;;6213413;23;20222;-88
2023/12/13 00:54:01;;;;;;;8.17;5.30;;;;;;;;;;6213011;23;20177;-88
2023/12/13 00:56:30;;;;;;;5.30;3.33;;;;;;;;;;6213124;23;20174;-88
2023/12/13 00:58:59;;;;;;;10.30;7.83;;;;;;;;;;6213757;23;20210;-88
2023/12/13 01:01:27;;;;;;;11.23;6.03;;;;;;;;;;6214195;23;20183;-88
2023/12/13 01:03:58;;;;;;;13.43;8.90;;;;;;;;;;6213417;23;20281;-88
2023/12/13 01:06:26;;;;;;;9.53;6.40;;;;;;;;;;6212988;23;20182;-88
2023/12/13 01:08:55;;;;;;;11.47;7.27;;;;;;;;;;6213418;23;20174;-88
2023/12/13 01:11:24;;;;;;;9.60;5.60;;;;;;;;;;6213415;23;20191;-88
2023/12/13 01:13:52;;;;;;;6.80;5.87;;;;;;;;;;6212914;23;20404;-88
2023/12/13 01:16:21;;;;;;;9.03;6.23;;;;;;;;;;6212752;23;20175;-88
2023/12/13 01:18:50;;;;;;;3.80;3.50;;;;;;;;;;6214107;23;20179;-88
2023/12/13 01:21:19;;;;;;;13.43;8.40;;;;;;;;;;6213744;23;20182;-88
2023/12/13 01:23:48;;;;;;;9.97;5.03;;;;;;;;;;6213120;23;20240;-88
2023/12/13 01:26:16;;;;;;;11.00;9.23;;;;;;;;;;6213081;23;20268;-88
2023/12/13 01:28:45;;;;;;;9.70;6.70;;;;;;;;;;6213768;23;20194;-88
2023/12/13 01:31:13;;;;;;;15.43;10.43;;;;;;;;;;6213588;23;20258;-88
2023/12/13 01:33:42;;;;;;;14.23;9.70;;;;;;;;;;6213998;23;20230;-88
2023/12/13 01:36:11;;;;;;;11.47;8.70;;;;;;;;;;6214998;23;20175;-88
2023/12/13 01:38:41;;;;;;;11.23;8.20;;;;;;;;;;6215032;23;20178;-88
2023/12/13 01:41:09;;;;;;;13.50;9.97;;;;;;;;;;6215520;23;20174;-88
2023/12/13 01:43:42;;;;;;;15.53;10.57;;;;;;;;;;6215290;23;20176;-88
2023/12/13 01:46:11;;;;;;;10.10;7.53;;;;;;;;;;6214371;23;20180;-88
2023/12/13 01:48:41;;;;;;;10.40;9.07;;;;;;;;;;6214970;23;20198;-88
2023/12/13 01:51:09;;;;;;;10.03;7.97;;;;;;;;;;6214799;23;20199;-88
2023/12/13 01:53:39;;;;;;;12.03;8.00;;;;;;;;;;6215080;23;20224;-88
2023/12/13 01:56:11;;;;;;;10.57;8.97;;;;;;;;;;6214511;23;20177;-88
2023/12/13 01:58:40;;;;;;;10.97;9.67;;;;;;;;;;6215071;23;20167;-88
2023/12/13 02:01:10;;;;;;;13.43;9.50;;;;;;;;;;6215329;23;20221;-88
2023/12/13 02:03:39;;;;;;;13.67;10.87;;;;;;;;;;6215150;23;20290;-88
2023/12/13 02:06:08;;;;;;;9.87;7.20;;;;;;;;;;6214490;23;20271;-88
2023/12/13 02:08:36;;;;;;;15.37;9.77;;;;;;;;;;6214575;23;20271;-88
2023/12/13 02:11:05;;;;;;;12.03;9.03;;;;;;;;;;6214935;23;20194;-88
2023/12/13 02:13:35;;;;;;;14.57;11.43;;;;;;;;;;6214637;23;20179;-88
2023/12/13 02:16:04;;;;;;;15.23;11.17;;;;;;;;;;6214531;23;20177;-88
2023/12/13 02:18:32;;;;;;;18.33;14.57;;;;;;;;;;6214493;23;20198;-88
2023/12/13 02:21:02;;;;;;;17.30;10.47;;;;;;;;;;6214934;23;20222;-88
2023/12/13 02:23:32;;;;;;;22.07;15.20;;;;;;;;;;6214545;23;20256;-88
2023/12/13 02:26:01;;;;;;;10.20;7.53;;;;;;;;;;6214618;23;20179;-88
2023/12/13 02:28:30;;;;;;;20.53;11.17;;;;;;;;;;6214886;23;20184;-88
2023/12/13 02:30:59;;;;;;;15.00;9.90;;;;;;;;;;6214516;23;20203;-88
2023/12/13 02:33:29;;;;;;;19.90;14.73;;;;;;;;;;6214289;23;20208;-88
2023/12/13 02:35:58;;;;;;;17.73;10.40;;;;;;;;;;6213995;23;20180;-88
2023/12/13 02:38:27;;;;;;;17.50;13.20;;;;;;;;;;6214380;23;20182;-88
2023/12/13 02:40:57;;;;;;;19.60;11.97;;;;;;;;;;6214851;23;20262;-88
2023/12/13 02:43:27;;;;;;;4.60;3.23;;;;;;;;;;6214494;23;20217;-88
2023/12/13 02:45:56;;;;;;;13.27;9.40;;;;;;;;;;6214326;23;20179;-88
2023/12/13 02:48:25;;;;;;;16.50;12.23;;;;;;;;;;6214460;23;20211;-88
2023/12/13 02:50:54;;;;;;;19.60;10.73;;;;;;;;;;6214584;23;20225;-88
2023/12/13 02:53:22;;;;;;;16.37;10.10;;;;;;;;;;6214254;23;20182;-88
2023/12/13 02:55:51;;;;;;;16.23;9.40;;;;;;;;;;6213767;23;20174;-88
2023/12/13 02:58:21;;;;;;;21.53;11.60;;;;;;;;;;6213908;23;20169;-88
2023/12/13 03:00:50;;;;;;;17.83;12.77;;;;;;;;;;6214579;23;20172;-88
2023/12/13 03:03:19;;;;;;;6.43;4.57;;;;;;;;;;6214220;23;20184;-88
2023/12/13 03:05:47;;;;;;;14.57;10.07;;;;;;;;;;6213683;23;20176;-88
2023/12/13 03:08:17;;;;;;;24.00;17.03;;;;;;;;;;6213834;23;20185;-89
2023/12/13 03:10:45;;;;;;;18.00;12.07;;;;;;;;;;6214757;23;20268;-88
2023/12/13 03:13:14;;;;;;;22.70;13.80;;;;;;;;;;6214567;23;20201;-88
2023/12/13 03:15:44;;;;;;;19.37;12.90;;;;;;;;;;6214030;23;20262;-88
2023/12/13 03:18:12;;;;;;;7.17;6.40;;;;;;;;;;6214098;23;20183;-88
2023/12/13 03:20:41;;;;;;;7.70;4.60;;;;;;;;;;6214189;23;20176;-88
2023/12/13 03:23:10;;;;;;;5.73;4.10;;;;;;;;;;6214308;23;20372;-88
2023/12/13 03:25:39;;;;;;;2.20;2.10;;;;;;;;;;6214398;23;20176;-88
2023/12/13 03:28:08;;;;;;;1.83;1.80;;;;;;;;;;6214431;23;20259;-88
2023/12/13 03:30:37;;;;;;;6.80;3.40;;;;;;;;;;6214208;23;20177;-88
2023/12/13 03:33:07;;;;;;;0.73;0.73;;;;;;;;;;6214202;23;20201;-88
2023/12/13 03:35:36;;;;;;;0.60;0.60;;;;;;;;;;6213761;23;20177;-88
2023/12/13 03:38:05;;;;;;;8.57;6.00;;;;;;;;;;6213680;23;20181;-88
2023/12/13 03:40:34;;;;;;;13.07;5.47;;;;;;;;;;6214316;23;20174;-88
2023/12/13 03:43:02;;;;;;;21.27;10.07;;;;;;;;;;6213660;23;20180;-88
2023/12/13 03:45:31;;;;;;;6.43;5.33;;;;;;;;;;6213757;23;20183;-88
2023/12/13 03:47:59;;;;;;;23.23;13.37;;;;;;;;;;6213834;23;20232;-88
2023/12/13 03:50:29;;;;;;;16.50;10.50;;;;;;;;;;6214105;23;20177;-88
2023/12/13 03:52:58;;;;;;;5.07;4.03;;;;;;;;;;6214029;23;20192;-88
2023/12/13 03:55:26;;;;;;;22.83;14.57;;;;;;;;;;6213578;23;20180;-88
2023/12/13 03:57:55;;;;;;;3.93;3.23;;;;;;;;;;6213249;23;20220;-88
2023/12/13 04:00:23;;;;;;;18.90;13.63;;;;;;;;;;6213743;23;20203;-88
2023/12/13 04:02:52;;;;;;;21.47;16.10;;;;;;;;;;6214045;23;20192;-88
2023/12/13 04:05:20;;;;;;;30.57;16.00;;;;;;;;;;6213749;23;20195;-88
2023/12/13 04:07:50;;;;;;;10.83;7.53;;;;;;;;;;6213793;23;20169;-88
2023/12/13 04:10:19;;;;;;;24.27;13.63;;;;;;;;;;6214279;23;20310;-88
2023/12/13 04:12:48;;;;;;;23.80;14.90;;;;;;;;;;6214054;23;20200;-88
2023/12/13 04:15:17;;;;;;;15.77;7.73;;;;;;;;;;6213311;23;20178;-88
2023/12/13 04:17:45;;;;;;;20.60;11.50;;;;;;;;;;6213642;23;20192;-89
2023/12/13 04:20:14;;;;;;;24.07;14.50;;;;;;;;;;6213550;23;20171;-88
2023/12/13 04:22:42;;;;;;;26.80;20.00;;;;;;;;;;6213609;23;20187;-89
2023/12/13 04:25:12;;;;;;;18.87;13.80;;;;;;;;;;6213791;23;20178;-89
2023/12/13 04:27:43;;;;;;;21.73;14.20;;;;;;;;;;6213371;23;20253;-88
2023/12/13 04:30:12;;;;;;;27.40;15.63;;;;;;;;;;6213832;23;20167;-89
2023/12/13 04:32:40;;;;;;;25.63;15.63;;;;;;;;;;6213354;23;20211;-88
2023/12/13 04:35:09;;;;;;;21.37;10.00;;;;;;;;;;6213585;23;20182;-89
2023/12/13 04:37:38;;;;;;;24.43;14.97;;;;;;;;;;6212794;23;20175;-88
2023/12/13 04:40:08;;;;;;;18.77;10.60;;;;;;;;;;6213803;23;20172;-89
2023/12/13 04:42:37;;;;;;;20.80;14.30;;;;;;;;;;6213669;23;20231;-89
2023/12/13 04:45:07;;;;;;;13.97;8.50;;;;;;;;;;6213973;23;20242;-89
2023/12/13 04:47:35;;;;;;;25.23;16.67;;;;;;;;;;6212856;23;20206;-89
2023/12/13 04:50:05;;;;;;;32.17;19.30;;;;;;;;;;6213334;23;20185;-88
2023/12/13 04:52:33;;;;;;;26.97;14.73;;;;;;;;;;6213477;23;20202;-88
2023/12/13 04:55:02;;;;;;;27.27;18.03;;;;;;;;;;6213022;23;20180;-88
2023/12/13 04:57:32;;;;;;;29.80;19.70;;;;;;;;;;6212772;23;20174;-88
2023/12/13 05:00:04;;;;;;;31.10;18.93;;;;;;;;;;6213550;23;20175;-89
2023/12/13 05:02:32;;;;;;;25.20;14.67;;;;;;;;;;6213952;23;20218;-88
2023/12/13 05:05:01;;;;;;;24.93;16.60;;;;;;;;;;6213491;23;20175;-89
2023/12/13 05:07:29;;;;;;;28.47;19.30;;;;;;;;;;6213744;23;20179;-88
2023/12/13 05:09:58;;;;;;;25.47;16.20;;;;;;;;;;6215832;23;20258;-89
2023/12/13 05:12:27;;;;;;;27.80;15.43;;;;;;;;;;6215799;23;20203;-89
2023/12/13 05:14:55;;;;;;;34.67;17.63;;;;;;;;;;6215357;23;20224;-88
2023/12/13 05:17:25;;;;;;;33.50;15.50;;;;;;;;;;6214887;23;20203;-88
2023/12/13 05:19:54;;;;;;;17.70;10.77;;;;;;;;;;6215652;23;20173;-89
2023/12/13 05:22:23;;;;;;;25.43;17.07;;;;;;;;;;6215525;23;20210;-88
2023/12/13 05:24:52;;;;;;;24.93;16.70;;;;;;;;;;6215627;23;20182;-89
2023/12/13 05:27:21;;;;;;;24.10;14.47;;;;;;;;;;6214692;23;20223;-89
2023/12/13 05:29:49;;;;;;;27.20;18.03;;;;;;;;;;6215182;23;20176;-89
2023/12/13 05:32:17;;;;;;;32.63;18.70;;;;;;;;;;6215288;23;20207;-88
2023/12/13 05:34:47;;;;;;;27.97;16.33;;;;;;;;;;6215510;23;20238;-88
2023/12/13 05:37:16;;;;;;;19.43;11.60;;;;;;;;;;6214922;23;20210;-88
2023/12/13 05:39:45;;;;;;;19.00;11.50;;;;;;;;;;6215275;23;20176;-90
2023/12/13 05:42:14;;;;;;;31.70;21.37;;;;;;;;;;6215963;23;20187;-89
2023/12/13 05:44:42;;;;;;;39.53;26.17;;;;;;;;;;6215559;23;20190;-88
2023/12/13 05:47:11;;;;;;;19.33;12.77;;;;;;;;;;6215432;23;20176;-89
2023/12/13 05:49:39;;;;;;;21.80;13.33;;;;;;;;;;6215412;23;20172;-89
2023/12/13 05:52:09;;;;;;;20.23;13.07;;;;;;;;;;6215468;23;20187;-89
2023/12/13 05:54:37;;;;;;;40.23;20.23;;;;;;;;;;6215478;23;20278;-88
2023/12/13 05:57:06;;;;;;;20.17;11.23;;;;;;;;;;6214104;23;20178;-89
2023/12/13 05:59:34;;;;;;;10.37;6.30;;;;;;;;;;6214598;23;20179;-88
2023/12/13 06:02:03;;;;;;;21.93;14.40;;;;;;;;;;6214983;23;20183;-89
2023/12/13 06:04:32;;;;;;;25.17;14.97;;;;;;;;;;6215454;23;20173;-89
2023/12/13 06:07:01;;;;;;;26.90;16.23;;;;;;;;;;6214353;23;20175;-89
2023/12/13 06:09:31;;;;;;;31.37;19.27;;;;;;;;;;6214497;23;20175;-89
2023/12/13 06:11:59;;;;;;;35.57;17.73;;;;;;;;;;6214847;23;20238;-89
2023/12/13 06:14:28;;;;;;;25.10;14.90;;;;;;;;;;6214928;23;20195;-88
2023/12/13 06:16:56;;;;;;;20.40;13.47;;;;;;;;;;6214567;23;20186;-88
2023/12/13 06:19:27;;;;;;;19.93;13.60;;;;;;;;;;6214155;23;20176;-89
2023/12/13 06:21:56;;;;;;;26.67;15.43;;;;;;;;;;6214834;23;20172;-89
2023/12/13 06:24:24;;;;;;;23.83;15.40;;;;;;;;;;6214296;23;20197;-89
2023/12/13 06:26:54;;;;;;;29.40;18.07;;;;;;;;;;6214557;23;20175;-88
2023/12/13 06:29:22;;;;;;;26.27;15.43;;;;;;;;;;6214534;23;20181;-89
2023/12/13 06:31:51;;;;;;;32.53;19.97;;;;;;;;;;6214521;23;20204;-88
2023/12/13 06:34:19;;;;;;;13.30;10.27;;;;;;;;;;6214094;23;20191;-88
2023/12/13 06:36:48;;;;;;;17.63;7.90;;;;;;;;;;6214069;23;20171;-87
2023/12/13 06:39:17;;;;;;;13.50;8.90;;;;;;;;;;6213850;23;20202;-87
2023/12/13 06:41:46;;;;;;;26.57;16.47;;;;;;;;;;6214457;23;20255;-87
2023/12/13 06:44:16;;;;;;;23.73;17.40;;;;;;;;;;6214298;23;20177;-88
2023/12/13 06:46:44;;;;;;;21.97;13.80;;;;;;;;;;6214552;23;20179;-87
2023/12/13 06:49:13;;;;;;;1.70;1.60;;;;;;;;;;6214315;23;20184;-87
2023/12/13 06:51:42;;;;;;;14.03;7.13;;;;;;;;;;6213935;23;20173;-87
2023/12/13 06:54:11;;;;;;;7.03;5.17;;;;;;;;;;6214393;23;20199;-88
2023/12/13 06:56:42;;;;;;;17.80;11.47;;;;;;;;;;6214026;23;20177;-88
2023/12/13 06:59:15;;;;;;;9.50;6.80;;;;;;;;;;6213761;23;20182;-88
2023/12/13 07:01:44;;;;;;;2.33;1.77;;;;;;;;;;6214382;23;20183;-88
2023/12/13 07:04:13;;;;;;;11.93;7.67;;;;;;;;;;6213796;23;20215;-88
2023/12/13 07:06:42;;;;;;;0.83;0.83;;;;;;;;;;6214195;23;20175;-88
2023/12/13 07:09:18;;;;;;;19.97;10.00;;;;;;;;;;6213733;23;20278;-84
2023/12/13 07:11:47;;;;;;;21.60;12.00;;;;;;;;;;6214919;23;20170;-91
2023/12/13 07:14:17;;;;;;;16.87;10.03;;;;;;;;;;6215010;23;20277;-92
2023/12/13 07:16:46;;;;;;;17.97;10.17;;;;;;;;;;6215565;23;20178;-92
2023/12/13 07:19:15;;;;;;;17.03;10.57;;;;;;;;;;6214960;23;20202;-88
2023/12/13 07:21:45;;;;;;;22.40;14.00;;;;;;;;;;6215578;23;20176;-93
2023/12/13 07:24:18;;;;;;;18.93;11.70;;;;;;;;;;6215110;23;20223;-92
2023/12/13 07:26:52;;;;;;;31.80;8.27;;;;;;;;;;6215427;23;20202;-91
2023/12/13 07:29:22;;;;;;;34.13;19.80;;;;;;;;;;6214579;23;20286;-92
2023/12/13 07:31:53;;;;;;;9.73;7.57;;;;;;;;;;6214757;23;20278;-92
2023/12/13 07:34:21;;;;;;;13.97;9.40;;;;;;;;;;6214966;23;20187;-92
2023/12/13 07:36:53;;;;;;;21.30;11.60;;;;;;;;;;6215512;23;20301;-92
2023/12/13 07:39:30;;;;;;;6.47;5.33;;;;;;;;;;6215567;23;20202;-93
2023/12/13 07:41:59;;;;;;;15.73;10.37;;;;;;;;;;6216010;23;20178;-93
2023/12/13 07:44:31;;;;;;;1.77;1.67;;;;;;;;;;6215460;23;20266;-92
2023/12/13 07:46:59;;;;;;;3.17;2.97;;;;;;;;;;6216175;23;20281;-92
2023/12/13 07:49:28;;;;;;;23.20;14.10;;;;;;;;;;6215540;23;20215;-93
2023/12/13 07:51:57;;;;;;;7.33;4.70;;;;;;;;;;6215130;23;20226;-93
2023/12/13 07:54:26;;;;;;;20.07;10.03;;;;;;;;;;6216081;23;20241;-93
2023/12/13 07:56:57;;;;;;;15.30;8.90;;;;;;;;;;6216623;23;20248;-93
2023/12/13 07:59:26;;;;;;;11.80;9.40;;;;;;;;;;6215576;23;20167;-93
2023/12/13 08:01:56;;;;;;;8.07;5.70;;;;;;;;;;6215249;23;20176;-92
2023/12/13 08:04:25;;;;;;;2.07;1.97;;;;;;;;;;6215574;23;20191;-94
2023/12/13 08:06:54;;;;;;;10.40;9.03;;;;;;;;;;6216034;23;20266;-92
2023/12/13 08:09:27;;;;;;;14.33;9.20;;;;;;;;;;6214022;23;20191;-91
2023/12/13 08:11:55;;;;;;;28.13;18.10;;;;;;;;;;6216082;23;20178;-92
2023/12/13 08:14:30;;;;;;;17.17;10.10;;;;;;;;;;6214790;23;20203;-91
2023/12/13 08:17:04;;;;;;;21.70;13.60;;;;;;;;;;6213928;23;20179;-91
2023/12/13 08:19:35;;;;;;;22.97;10.90;;;;;;;;;;6215627;23;20206;-93
2023/12/13 08:22:04;;;;;;;17.53;12.83;;;;;;;;;;6215505;23;20176;-91
2023/12/13 08:24:33;;;;;;;33.57;19.73;;;;;;;;;;6214878;23;20168;-93
2023/12/13 08:27:02;;;;;;;24.97;15.50;;;;;;;;;;6214658;23;20183;-93
2023/12/13 08:29:36;;;;;;;12.03;8.83;;;;;;;;;;6213716;23;20207;-92
2023/12/13 08:32:07;;;;;;;19.87;13.03;;;;;;;;;;6214539;23;20245;-91
2023/12/13 08:34:36;;;;;;;2.80;2.57;;;;;;;;;;6214788;23;20394;-93
2023/12/13 08:37:05;;;;;;;4.93;4.43;;;;;;;;;;6215749;23;20187;-93
2023/12/13 08:39:34;;;;;;;6.33;4.23;;;;;;;;;;6214703;23;20182;-92
2023/12/13 08:42:03;;;;;;;0.80;0.80;;;;;;;;;;6216081;23;20241;-92
2023/12/13 08:44:32;;;;;;;0.90;0.90;;;;;;;;;;6217098;23;20170;-93
2023/12/13 08:47:01;;;;;;;3.33;3.13;;;;;;;;;;6217210;23;20175;-92
2023/12/13 08:49:32;;;;;;;4.30;3.23;;;;;;;;;;6216402;23;20175;-92
2023/12/13 08:52:03;;;;;;;6.73;6.20;;;;;;;;;;6216838;23;20182;-93
2023/12/13 08:54:33;;;;;;;14.17;9.33;;;;;;;;;;6217837;23;20188;-92
2023/12/13 08:57:02;;;;;;;5.53;3.50;;;;;;;;;;6217406;23;20176;-92
2023/12/13 08:59:31;;;;;;;3.67;2.93;;;;;;;;;;6217555;23;20203;-91
2023/12/13 09:02:00;;;;;;;1.70;1.43;;;;;;;;;;6216999;23;20176;-92
2023/12/13 09:04:39;;;;;;;10.97;7.93;;;;;;;;;;6215661;23;20166;-92
2023/12/13 09:07:08;;;;;;;4.97;4.33;;;;;;;;;;6217360;23;20196;-92
2023/12/13 09:09:41;;;;;;;1.83;1.80;;;;;;;;;;6215702;23;20176;-93
2023/12/13 09:12:12;;;;;;;1.43;1.43;;;;;;;;;;6216883;23;20269;-93
2023/12/13 09:14:44;;;;;;;2.37;2.17;;;;;;;;;;6216462;23;20215;-91
2023/12/13 09:17:13;;;;;;;0.77;0.77;;;;;;;;;;6217007;23;20277;-92
2023/12/13 09:19:43;;;;;;;1.00;1.00;;;;;;;;;;6216867;23;20230;-93
2023/12/13 09:22:13;;;;;;;0.70;0.70;;;;;;;;;;6215954;23;20183;-93
2023/12/13 09:24:42;;;;;;;2.90;2.70;;;;;;;;;;6217073;23;20168;-91
2023/12/13 09:30:04;;;;;;;2.50;2.40;;;;;;;;;;6216178;23;20171;-90
2023/12/13 09:32:41;;;;;;;1.37;1.37;;;;;;;;;;6216319;23;20204;-91
2023/12/13 09:35:16;;;;;;;1.97;1.60;;;;;;;;;;6216259;23;20193;-90
2023/12/13 09:37:51;;;;;;;1.13;1.13;;;;;;;;;;6217019;23;20178;-90
2023/12/13 09:40:22;;;;;;;1.73;1.63;;;;;;;;;;6216557;23;20179;-91
2023/12/13 09:42:56;;;;;;;0.57;0.57;;;;;;;;;;6216249;23;20169;-90
2023/12/13 09:45:26;;;;;;;1.90;1.77;;;;;;;;;;6215854;23;20212;-90
2023/12/13 09:48:02;;;;;;;1.87;1.73;;;;;;;;;;6216289;23;20278;-90
2023/12/13 09:50:34;;;;;;;0.60;0.60;;;;;;;;;;6215197;23;20173;-90
2023/12/13 09:53:04;;;;;;;1.87;1.73;;;;;;;;;;6216587;23;20244;-90
2023/12/13 09:55:36;;;;;;;1.97;1.77;;;;;;;;;;6215252;23;20201;-90
2023/12/13 09:58:15;;;;;;;4.57;3.50;;;;;;;;;;6216491;23;20174;-90
2023/12/13 10:00:58;;;;;;;2.97;2.67;;;;;;;;;;6215676;23;20173;-91
2023/12/13 10:03:36;;;;;;;0.80;0.80;;;;;;;;;;6215407;23;20173;-90
2023/12/13 10:06:27;;;;;;;30.13;2.60;;;;;;;;;;6216861;23;20229;-88
2023/12/13 10:09:20;;;;;;;1.70;1.60;;;;;;;;;;6186199;23;20178;-90
2023/12/13 10:12:07;;;;;;;1.20;1.20;;;;;;;;;;6185282;23;20221;-91
2023/12/13 10:14:45;;;;;;;1.37;1.27;;;;;;;;;;6185633;23;20168;-91
2023/12/13 10:17:15;;;;;;;0.50;0.50;;;;;;;;;;6186368;23;20266;-90
2023/12/13 10:20:08;;;;;;;1.10;1.07;;;;;;;;;;6185470;23;20171;-90
2023/12/13 10:22:50;;;;;;;2.53;1.53;;;;;;;;;;6185087;23;20193;-90
2023/12/13 10:25:21;;;;;;;1.77;1.73;;;;;;;;;;6186172;23;20202;-91
2023/12/13 10:27:56;;;;;;;0.80;0.80;;;;;;;;;;6185694;23;20194;-91
2023/12/13 10:30:26;;;;;;;1.60;1.50;;;;;;;;;;6184958;23;20167;-91
2023/12/13 10:32:55;;;;;;;2.77;2.13;;;;;;;;;;6185397;23;20257;-91
2023/12/13 10:35:30;;;;;;;0.93;0.93;;;;;;;;;;6185968;23;20207;-91
2023/12/13 10:38:06;;;;;;;1.70;1.43;;;;;;;;;;6185697;23;20214;-92
2023/12/13 10:40:35;;;;;;;0.93;0.93;;;;;;;;;;6186049;23;20175;-91
2023/12/13 10:43:08;;;;;;;1.27;1.27;;;;;;;;;;6185858;23;20206;-91
2023/12/13 10:45:43;;;;;;;0.83;0.70;;;;;;;;;;6185974;23;20203;-91
2023/12/13 10:48:13;;;;;;;0.73;0.73;;;;;;;;;;6186454;23;20209;-90
2023/12/13 10:50:42;;;;;;;0.87;0.87;;;;;;;;;;6186096;23;20234;-88
2023/12/13 10:53:12;;;;;;;0.50;0.50;;;;;;;;;;6184849;23;20236;-88
2023/12/13 10:55:41;;;;;;;0.70;0.70;;;;;;;;;;6185251;23;20215;-87
2023/12/13 10:58:10;;;;;;;0.60;0.60;;;;;;;;;;6185340;23;20198;-88
2023/12/13 11:00:40;;;;;;;0.60;0.60;;;;;;;;;;6184913;23;20211;-88
2023/12/13 11:03:13;;;;;;;1.10;1.10;;;;;;;;;;6184616;23;20201;-88
2023/12/13 11:05:42;;;;;;;1.43;1.23;;;;;;;;;;6184169;23;20206;-88
2023/12/13 11:08:16;;;;;;;1.53;1.43;;;;;;;;;;6185110;23;20167;-87
2023/12/13 11:10:59;;;;;;;1.30;1.20;;;;;;;;;;6183797;23;20171;-87
2023/12/13 11:13:31;;;;;;;2.63;2.53;;;;;;;;;;6184400;23;20203;-88
2023/12/13 11:16:01;;;;;;;5.83;2.97;;;;;;;;;;6185143;23;20167;-88
2023/12/13 11:18:31;;;;;;;1.47;1.47;;;;;;;;;;6185019;23;20182;-87
2023/12/13 11:21:05;;;;;;;2.03;1.93;;;;;;;;;;6183814;23;20245;-87
2023/12/13 11:23:35;;;;;;;0.63;0.63;;;;;;;;;;6182494;23;20194;-87
2023/12/13 11:26:14;;;;;;;0.80;0.80;;;;;;;;;;6183726;23;20193;-87
2023/12/13 11:28:49;;;;;;;0.80;0.80;;;;;;;;;;6185153;23;20182;-89
2023/12/13 11:31:22;;;;;;;1.47;1.40;;;;;;;;;;6183852;23;20215;-87
2023/12/13 11:33:51;;;;;;;0.90;0.90;;;;;;;;;;6183138;23;20206;-87
2023/12/13 11:36:21;;;;;;;1.67;1.57;;;;;;;;;;6184726;23;20206;-90
2023/12/13 11:38:56;;;;;;;0.90;0.90;;;;;;;;;;6182924;23;20265;-85
2023/12/13 11:41:25;;;;;;;1.80;1.70;;;;;;;;;;6181892;23;20175;-86
2023/12/13 11:43:54;;;;;;;0.70;0.70;;;;;;;;;;6178211;23;20171;-86
2023/12/13 11:46:25;;;;;;;1.37;1.37;;;;;;;;;;6182507;23;20241;-85
2023/12/13 11:48:54;;;;;;;0.60;0.60;;;;;;;;;;6181953;23;20256;-85
2023/12/13 11:51:23;;;;;;;2.17;2.03;;;;;;;;;;6182187;23;20201;-86
2023/12/13 11:53:51;;;;;;;0.50;0.50;;;;;;;;;;6182799;23;20202;-85
2023/12/13 11:56:22;;;;;;;3.40;1.33;;;;;;;;;;6180836;23;20290;-86
2023/12/13 11:58:53;;;;;;;2.60;2.50;;;;;;;;;;6182986;23;20201;-86
2023/12/13 12:01:26;;;;;;;3.60;3.30;;;;;;;;;;6180730;23;20262;-86
2023/12/13 12:04:00;;;;;;;4.90;3.73;;;;;;;;;;6178735;23;20186;-87
2023/12/13 12:06:29;;;;;;;4.60;4.20;;;;;;;;;;6180218;23;20271;-86
2023/12/13 12:09:01;;;;;;;2.10;2.00;;;;;;;;;;6180113;23;20171;-86
2023/12/13 12:11:30;;;;;;;3.80;2.97;;;;;;;;;;6181431;23;20179;-86
2023/12/13 12:13:58;;;;;;;4.90;3.80;;;;;;;;;;6178953;23;20222;-87
2023/12/13 12:16:28;;;;;;;6.53;5.50;;;;;;;;;;6178685;23;20171;-86
2023/12/13 12:18:57;;;;;;;2.33;2.23;;;;;;;;;;6179869;23;20183;-86
2023/12/13 12:21:27;;;;;;;9.67;8.93;;;;;;;;;;6179517;23;20175;-86
2023/12/13 12:23:59;;;;;;;4.73;4.17;;;;;;;;;;6180570;23;20202;-85
2023/12/13 12:26:29;;;;;;;4.60;3.23;;;;;;;;;;6180968;23;20197;-89
2023/12/13 12:28:58;;;;;;;7.33;4.20;;;;;;;;;;6181023;23;20171;-88
2023/12/13 12:31:31;;;;;;;4.80;4.33;;;;;;;;;;6179101;23;20203;-88
2023/12/13 12:34:01;;;;;;;8.60;6.80;;;;;;;;;;6178258;23;20229;-88
2023/12/13 12:36:33;;;;;;;11.13;8.57;;;;;;;;;;6178399;23;20177;-88
2023/12/13 12:39:11;;;;;;;7.70;2.67;;;;;;;;;;6185328;23;20210;-87
2023/12/13 12:42:28;;;;;;;8.50;5.80;;;;;;;;;;6183528;23;20174;-86
2023/12/13 12:44:59;;;;;;;7.03;5.83;;;;;;;;;;6182957;23;20229;-86
2023/12/13 12:47:29;;;;;;;9.30;5.93;;;;;;;;;;6182406;23;20202;-86
2023/12/13 12:49:58;;;;;;;7.87;3.20;;;;;;;;;;6182680;23;20181;-85
2023/12/13 12:52:27;;;;;;;4.97;3.53;;;;;;;;;;6182619;23;20345;-84
2023/12/13 12:54:57;;;;;;;9.63;7.20;;;;;;;;;;6181185;23;20178;-83
2023/12/13 12:57:27;;;;;;;6.07;4.97;;;;;;;;;;6182525;23;20167;-84
2023/12/13 12:59:55;;;;;;;9.70;4.80;;;;;;;;;;6181796;23;20175;-83
2023/12/13 13:02:23;;;;;;;4.30;4.00;;;;;;;;;;6181801;23;20185;-83
2023/12/13 13:05:01;;;;;;;8.30;6.10;;;;;;;;;;6181461;23;20233;-83
2023/12/13 13:07:32;;;;;;;5.03;4.17;;;;;;;;;;6178208;23;20195;-83
2023/12/13 13:10:06;;;;;;;11.80;6.47;;;;;;;;;;6179897;23;20178;-83
2023/12/13 13:12:38;;;;;;;14.13;8.53;;;;;;;;;;6181787;23;20185;-84
2023/12/13 13:15:08;;;;;;;9.73;6.33;;;;;;;;;;6182339;23;20175;-83
2023/12/13 13:17:36;;;;;;;8.50;6.50;;;;;;;;;;6182386;23;20197;-83
2023/12/13 13:20:12;;;;;;;5.23;3.37;;;;;;;;;;6181822;23;20217;-82
2023/12/13 13:22:42;;;;;;;5.60;4.70;;;;;;;;;;6181123;23;20191;-83
2023/12/13 13:25:11;;;;;;;6.03;5.43;;;;;;;;;;6181496;23;20175;-82
2023/12/13 13:27:44;;;;;;;8.20;6.20;;;;;;;;;;6181995;23;20282;-82
2023/12/13 13:30:15;;;;;;;7.83;5.53;;;;;;;;;;6184042;23;20179;-82
2023/12/13 13:32:44;;;;;;;1.57;1.57;;;;;;;;;;6181515;23;20217;-83
2023/12/13 13:35:15;;;;;;;4.20;3.90;;;;;;;;;;6180191;23;20186;-81
2023/12/13 13:37:43;;;;;;;6.57;5.87;;;;;;;;;;6181153;23;20178;-82
2023/12/13 13:40:12;;;;;;;7.90;6.23;;;;;;;;;;6180702;23;20175;-81
2023/12/13 13:42:41;;;;;;;2.73;2.40;;;;;;;;;;6179271;23;20183;-82
2023/12/13 13:45:13;;;;;;;2.73;2.40;;;;;;;;;;6181321;23;20253;-81
2023/12/13 13:47:41;;;;;;;11.10;7.37;;;;;;;;;;6179667;23;20254;-80
2023/12/13 13:50:11;;;;;;;10.17;6.47;;;;;;;;;;6180564;23;20225;-83
2023/12/13 13:52:42;;;;;;;4.20;3.43;;;;;;;;;;6180413;23;20291;-82
2023/12/13 13:55:11;;;;;;;9.57;6.93;;;;;;;;;;6180455;23;20213;-82
2023/12/13 13:57:39;;;;;;;8.50;4.93;;;;;;;;;;6181065;23;20501;-82
2023/12/13 14:00:10;;;;;;;4.83;4.43;;;;;;;;;;6178883;23;20253;-82
2023/12/13 14:02:39;;;;;;;4.53;3.97;;;;;;;;;;6182252;23;20179;-82
2023/12/13 14:05:08;;;;;;;11.70;8.27;;;;;;;;;;6180512;23;20336;-82
2023/12/13 14:07:37;;;;;;;5.37;4.97;;;;;;;;;;6180634;23;20202;-81
2023/12/13 14:10:09;;;;;;;11.77;8.87;;;;;;;;;;6182536;23;20193;-82
2023/12/13 14:12:37;;;;;;;5.67;5.13;;;;;;;;;;6182779;23;20174;-82
2023/12/13 14:15:08;;;;;;;12.30;8.40;;;;;;;;;;6183484;23;20175;-82
2023/12/13 14:17:36;;;;;;;10.87;6.70;;;;;;;;;;6180682;23;20514;-82
2023/12/13 14:20:06;;;;;;;14.87;8.97;;;;;;;;;;6182052;23;20182;-82
2023/12/13 14:22:37;;;;;;;10.27;6.37;;;;;;;;;;6179575;23;20199;-82
2023/12/13 14:25:09;;;;;;;13.80;8.97;;;;;;;;;;6180422;23;20215;-81
2023/12/13 14:27:38;;;;;;;7.43;6.73;;;;;;;;;;6181044;23;20392;-81
2023/12/13 14:30:07;;;;;;;13.07;9.23;;;;;;;;;;6179353;23;20178;-81
2023/12/13 14:32:38;;;;;;;9.77;5.00;;;;;;;;;;6182186;23;20302;-81
2023/12/13 14:35:07;;;;;;;11.10;7.27;;;;;;;;;;6182168;23;20191;-82
2023/12/13 14:37:42;;;;;;;14.47;7.13;;;;;;;;;;6182804;23;20264;-83
2023/12/13 14:40:15;;;;;;;11.87;4.37;;;;;;;;;;6181714;23;20181;-82
2023/12/13 14:42:45;;;;;;;7.30;4.30;;;;;;;;;;6179307;23;20190;-83
2023/12/13 14:45:14;;;;;;;6.50;4.53;;;;;;;;;;6179317;23;20183;-82
2023/12/13 14:47:42;;;;;;;11.33;6.37;;;;;;;;;;6178420;23;20212;-82
2023/12/13 14:50:12;;;;;;;10.20;7.60;;;;;;;;;;6178430;23;20173;-82
2023/12/13 14:52:42;;;;;;;7.67;6.30;;;;;;;;;;6180217;23;20171;-82
2023/12/13 14:55:11;;;;;;;7.30;5.67;;;;;;;;;;6180615;23;20170;-81